Estaciones Metar próximas

 

LELL - Sabadell, Spain
Distancia a la estación: E 18km
Actualizado: 23/11/2017 21:00
Despejado
Despejado
 Viento del calm
Viento: Calma
Temperatura: 11°C
Rocío: 9°C
Humedad: 88%
Barómetro: 1018 hPa
Nubes: Despejado
Visibilidad: 9 km
2017/11/23 20:00 LELL 232000Z AUTO 00000KT 9000 NCD 11/09 Q1018
LEBL - Barcelona Airpor, Spain
Distancia a la estación: SSE 33km
Actualizado: 23/11/2017 21:00
Parcialmente nuboso
Parcialmente nuboso
 Viento del O
Viento: O 9 km/h
Temperatura: 14°C
Rocío: 13°C
Humedad: 94%
Barómetro: 1018 hPa
Nubes: Parcialmente nuboso
Visibilidad: 8 km
2017/11/23 20:00 LEBL 232000Z 28005KT 250V340 8000 NSC 14/13 Q1018 NOSIG
LERS - Reus (civ/Mil), Spain
Distancia a la estación: SO 75km
Actualizado: 23/11/2017 21:00
Patches of fog, Muy nuboso
Patches of fog, Muy nuboso
 Viento del varies
Viento: varies 2 km/h
Temperatura: 13°C
Rocío: 12°C
Humedad: 94%
Barómetro: 1019 hPa
Resumen: Patches of Fog
Nubes: Muy nuboso
Visibilidad: 2 km
Detalle Nubes: Muy nuboso 152 m
2017/11/23 20:00 LERS 232000Z VRB01KT 2100 BCFG BKN005 13/12 Q1019
 
LEGE - Gerona/Costa Bra, Spain
Distancia a la estación: ENE 83km
Actualizado: 23/11/2017 21:00
Parcialmente nuboso
Parcialmente nuboso
 Viento del varies
Viento: varies 2 km/h
Temperatura: 12°C
Rocío: 11°C
Humedad: 94%
Barómetro: 1018 hPa
Nubes: Parcialmente nuboso
Visibilidad: 6 km
2017/11/23 20:00 LEGE 232000Z VRB01KT 6000 NSC 12/11 Q1018
LFMP - Perpignan/Rivesa, France
Distancia a la estación: NNE 155km
Actualizado: 23/11/2017 21:00
Cubierto
Cubierto
 Viento del OSO
Viento: OSO 9 km/h
Temperatura: 12°C
Rocío: 11°C
Humedad: 94%
Barómetro: 1019 hPa
Nubes: Cubierto
Visibilidad: 7 km
Detalle Nubes: Cubierto 152 m
2017/11/23 20:00 LFMP 232000Z AUTO 24005KT 7000 OVC005 12/11 Q1019 TEMPO 2000 BR
LFMK - Carcassonne/Salv, France
Distancia a la estación: N 191km
Actualizado: 23/11/2017 21:00
Cubierto
Cubierto
 Viento del E
Viento: E 17 km/h
Temperatura: 14°C
Rocío: 13°C
Humedad: 94%
Barómetro: 1018 hPa
Nubes: Cubierto
Visibilidad: 10 km
Detalle Nubes: Cubierto 244 m
2017/11/23 20:00 LFMK 232000Z AUTO 09009KT 9999 OVC008 14/13 Q1018
 
LEHC - Huesca-Pirineos, Spain
Distancia a la estación: ONO 193km
Actualizado: 23/11/2017 21:00
Despejado
Despejado
 Viento del N
Viento: N 4 km/h
Temperatura: 6°C
Rocío: 2°C
Humedad: 76%
Barómetro: 1019 hPa
Nubes: Despejado
Visibilidad: 10 km
2017/11/23 20:00 LEHC 232000Z AUTO 35002KT 9999 NCD 06/02 Q1019
LFMU - Beziers/Vias, France
Distancia a la estación: NNE 232km
Actualizado: 23/11/2017 21:00
Cubierto
Cubierto
 Viento del ENE
Viento: ENE 13 km/h
Temperatura: 14°C
Rocío: 13°C
Humedad: 94%
Barómetro: 1019 hPa
Nubes: Cubierto
Visibilidad: 10 km
Detalle Nubes: Cubierto 274 m
2017/11/23 20:00 LFMU 232000Z AUTO 07007KT 9999 OVC009 14/13 Q1019
LEPA - Palma De Mallorc, Spain
Distancia a la estación: SSE 233km
Actualizado: 23/11/2017 21:00
Despejado
Despejado
 Viento del calm
Viento: Calma
Temperatura: 10°C
Rocío: 9°C
Humedad: 94%
Barómetro: 1020 hPa
Resumen: Despejado
Visibilidad: greater than 10 km
2017/11/23 20:00 LEPA 232000Z 00000KT CAVOK 10/09 Q1020 NOSIG
 
LFBO - Toulouse/Blagnac, France
Distancia a la estación: N 236km
Actualizado: 23/11/2017 21:00
Parcialmente nuboso
Parcialmente nuboso
 Viento del SE
Viento: SE 26 km/h
Temperatura: 14°C
Rocío: 11°C
Humedad: 82%
Barómetro: 1017 hPa
Nubes: Parcialmente nuboso
Visibilidad: 10 km
Detalle Nubes: Parcialmente nuboso 396 m
2017/11/23 20:00 LFBO 232000Z AUTO 14014KT 9999 SCT013 14/11 Q1017 TEMPO BKN008
LFBT - Tarbes/Ossun, France
Distancia a la estación: NO 239km
Actualizado: 23/11/2017 21:00
Despejado
Despejado
 Viento del S
Viento: S 6 km/h
Temperatura: 6°C
Rocío: 3°C
Humedad: 81%
Barómetro: 1016 hPa
Resumen: Despejado
Visibilidad: greater than 10 km
2017/11/23 20:00 LFBT 232000Z AUTO 18003KT CAVOK 06/03 Q1016 NOSIG
LEZG - Zaragoza (mil/Ci, Spain
Distancia a la estación: O 242km
Actualizado: 23/11/2017 21:00
Nubes dispersas
Nubes dispersas
 Viento del E
Viento: E 7 km/h
Temperatura: 10°C
Sensación Térmica: 9°C
Rocío: 5°C
Humedad: 71%
Barómetro: 1019 hPa
Nubes: Nubes dispersas
Visibilidad: 10 km
Detalle Nubes: Nubes dispersas 2134 m
2017/11/23 20:00 LEZG 232000Z 08004KT 9999 FEW070 10/05 Q1019